createdAt,value
2023-02-03T00:00:10.734Z,81.32
2023-02-03T00:02:50.101Z,81.38
2023-02-03T00:05:23.061Z,81.72
2023-02-03T00:07:53.602Z,81.41
2023-02-03T00:10:27.884Z,81.60
2023-02-03T00:12:59.902Z,81.75
2023-02-03T00:15:34.502Z,81.80
2023-02-03T00:18:15.009Z,81.72
2023-02-03T00:20:45.435Z,81.86
2023-02-03T00:23:18.953Z,82.02
2023-02-03T00:25:48.542Z,82.07
2023-02-03T00:28:21.060Z,81.97
2023-02-03T00:30:53.599Z,82.19
2023-02-03T00:33:26.006Z,82.33
2023-02-03T00:35:57.415Z,82.09
2023-02-03T00:38:27.747Z,82.50
2023-02-03T00:40:55.011Z,82.75
2023-02-03T00:43:31.661Z,82.44
2023-02-03T00:45:59.280Z,82.13
2023-02-03T00:48:28.789Z,81.84
2023-02-03T00:50:58.487Z,82.24
2023-02-03T00:53:28.337Z,82.41
2023-02-03T00:55:57.082Z,82.16
2023-02-03T00:58:29.193Z,82.18
2023-02-03T01:01:03.372Z,82.18
2023-02-03T01:03:37.942Z,82.13
2023-02-03T01:06:17.695Z,82.45
2023-02-03T01:08:44.789Z,82.52
2023-02-03T01:11:15.245Z,82.55
2023-02-03T01:13:47.746Z,82.85
2023-02-03T01:16:21.770Z,82.85
2023-02-03T01:18:52.362Z,82.22
2023-02-03T01:21:24.903Z,82.30
2023-02-03T01:23:55.025Z,82.43
2023-02-03T01:26:24.394Z,82.46
2023-02-03T01:28:57.260Z,82.70
2023-02-03T01:31:30.281Z,82.82
2023-02-03T01:34:03.074Z,82.51
2023-02-03T01:36:36.740Z,82.65
2023-02-03T01:39:06.515Z,82.55
2023-02-03T01:41:39.021Z,82.54
2023-02-03T01:44:40.556Z,82.11
2023-02-03T01:47:34.142Z,82.09
2023-02-03T01:51:02.080Z,82.23
2023-02-03T01:54:30.841Z,82.45
2023-02-03T01:57:26.642Z,82.73
2023-02-03T02:00:17.950Z,82.56
2023-02-03T02:02:47.984Z,82.60
2023-02-03T02:05:33.975Z,82.44
2023-02-03T02:08:04.922Z,82.45
2023-02-03T02:10:38.026Z,82.43
2023-02-03T02:13:05.314Z,82.44
2023-02-03T02:15:55.243Z,82.04
2023-02-03T02:18:38.086Z,82.51
2023-02-03T02:21:26.726Z,82.64
2023-02-03T02:24:08.714Z,82.17
2023-02-03T02:27:05.400Z,82.09
2023-02-03T02:29:40.826Z,82.17
2023-02-03T02:32:22.403Z,82.52
2023-02-03T02:35:43.240Z,82.33
2023-02-03T02:38:35.093Z,82.74
2023-02-03T02:41:30.294Z,82.46
2023-02-03T02:44:07.056Z,82.03
2023-02-03T02:46:42.106Z,81.95
2023-02-03T02:49:26.979Z,82.07
2023-02-03T02:51:59.609Z,81.96
2023-02-03T02:54:29.441Z,81.78
2023-02-03T02:56:59.507Z,82.28
2023-02-03T02:59:32.732Z,82.11
2023-02-03T03:02:01.883Z,81.74
2023-02-03T03:04:31.622Z,82.18
2023-02-03T03:07:05.156Z,82.16
2023-02-03T03:09:48.583Z,82.20
2023-02-03T03:12:23.529Z,81.69
2023-02-03T03:15:07.577Z,81.06
2023-02-03T03:17:39.586Z,81.11
2023-02-03T03:20:14.248Z,80.83
2023-02-03T03:22:46.976Z,80.63
2023-02-03T03:25:43.175Z,81.01
2023-02-03T03:28:32.870Z,81.36
2023-02-03T03:31:27.354Z,80.98
2023-02-03T03:33:57.932Z,81.27
2023-02-03T03:36:39.989Z,80.95
2023-02-03T03:39:35.613Z,80.60
2023-02-03T03:42:16.587Z,80.28
2023-02-03T03:45:14.239Z,80.34
2023-02-03T03:48:09.870Z,80.37
2023-02-03T03:50:46.252Z,80.70
2023-02-03T03:53:17.716Z,80.53
2023-02-03T03:55:49.621Z,80.68
2023-02-03T03:58:23.166Z,81.03
2023-02-03T04:00:58.688Z,80.66
2023-02-03T04:03:32.597Z,80.40
2023-02-03T04:06:02.484Z,80.82
2023-02-03T04:08:31.642Z,80.57
2023-02-03T04:11:01.605Z,80.88
2023-02-03T04:13:29.371Z,80.43
2023-02-03T04:15:58.387Z,80.26
2023-02-03T04:18:30.553Z,80.01
2023-02-03T04:21:07.571Z,80.27
2023-02-03T04:23:35.567Z,80.48
2023-02-03T04:26:06.508Z,80.00
2023-02-03T04:28:40.301Z,79.74
2023-02-03T04:31:10.995Z,79.48
2023-02-03T04:33:41.777Z,79.49
2023-02-03T04:36:12.916Z,80.07
2023-02-03T04:38:45.399Z,79.96
2023-02-03T04:43:15.360Z,80.02
2023-02-03T04:45:47.066Z,78.79
2023-02-03T04:48:21.967Z,78.10
2023-02-03T04:50:50.995Z,78.08
2023-02-03T04:53:24.161Z,78.39
2023-02-03T04:55:55.804Z,78.45
2023-02-03T04:58:29.418Z,78.18
2023-02-03T05:00:58.181Z,78.53
2023-02-03T05:03:57.273Z,78.72
2023-02-03T05:06:33.045Z,78.88
2023-02-03T05:09:02.409Z,78.90
2023-02-03T05:11:36.303Z,78.90
2023-02-03T05:14:07.581Z,79.13
2023-02-03T05:16:41.596Z,78.88
2023-02-03T05:19:11.348Z,78.69
2023-02-03T05:21:45.231Z,79.03
2023-02-03T05:24:14.200Z,79.17
2023-02-03T05:26:46.262Z,79.10
2023-02-03T05:29:15.556Z,79.49
2023-02-03T05:31:52.378Z,79.19
2023-02-03T05:34:22.276Z,79.11
2023-02-03T05:36:57.741Z,79.10
2023-02-03T05:39:31.194Z,79.41
2023-02-03T05:42:05.291Z,79.14
2023-02-03T05:44:36.595Z,79.14
2023-02-03T05:47:09.009Z,79.45
2023-02-03T05:49:42.995Z,79.56
2023-02-03T05:52:17.283Z,79.50
2023-02-03T05:54:55.396Z,79.22
2023-02-03T05:57:48.723Z,79.62
2023-02-03T06:00:35.214Z,79.19
2023-02-03T06:03:06.107Z,79.09
2023-02-03T06:05:41.083Z,78.78
2023-02-03T06:08:11.500Z,78.37
2023-02-03T06:10:45.367Z,78.41
2023-02-03T06:13:48.709Z,78.39
2023-02-03T06:16:25.015Z,77.95
2023-02-03T06:18:55.941Z,77.90
2023-02-03T06:21:32.621Z,77.68
2023-02-03T06:24:07.654Z,77.67
2023-02-03T06:26:40.124Z,77.38
2023-02-03T06:29:13.406Z,77.52
2023-02-03T06:31:45.982Z,77.47
2023-02-03T06:34:15.886Z,77.47
2023-02-03T06:38:38.942Z,77.47
2023-02-03T06:42:54.563Z,78.24
2023-02-03T06:45:25.109Z,77.94
2023-02-03T06:47:53.973Z,78.19
2023-02-03T06:50:26.652Z,77.51
2023-02-03T06:52:54.539Z,77.34
2023-02-03T06:55:27.010Z,76.72
2023-02-03T06:57:57.272Z,77.03
2023-02-03T07:00:25.319Z,77.72
2023-02-03T07:02:57.787Z,78.37
2023-02-03T07:05:27.448Z,78.55
2023-02-03T07:07:59.648Z,78.14
2023-02-03T07:10:30.626Z,78.25
2023-02-03T07:13:07.149Z,78.43
2023-02-03T07:15:40.479Z,78.30
2023-02-03T07:18:10.099Z,79.01
2023-02-03T07:20:41.783Z,79.53
2023-02-03T07:23:16.239Z,80.08
2023-02-03T07:25:46.523Z,79.61
2023-02-03T07:28:18.819Z,78.32
2023-02-03T07:30:51.832Z,77.91
2023-02-03T07:34:00.911Z,77.51
2023-02-03T07:36:28.732Z,77.69
2023-02-03T07:38:58.416Z,78.25
2023-02-03T07:41:31.494Z,79.04
2023-02-03T07:44:02.835Z,79.87
2023-02-03T07:46:33.108Z,80.10
2023-02-03T07:49:03.920Z,79.37
2023-02-03T07:51:36.049Z,79.14
2023-02-03T07:54:08.401Z,79.37
2023-02-03T07:56:37.078Z,79.35
2023-02-03T07:59:08.513Z,79.36
2023-02-03T08:01:38.677Z,79.02
2023-02-03T08:04:16.641Z,78.97
2023-02-03T08:06:44.007Z,79.00
2023-02-03T08:09:24.643Z,78.73
2023-02-03T08:11:53.235Z,78.89
2023-02-03T08:14:26.621Z,78.67
2023-02-03T08:16:56.530Z,78.55
2023-02-03T08:19:38.419Z,78.72
2023-02-03T08:22:09.351Z,79.21
2023-02-03T08:24:38.411Z,78.94
2023-02-03T08:27:06.868Z,78.03
2023-02-03T08:29:38.797Z,77.47
2023-02-03T08:32:19.791Z,77.57
2023-02-03T08:34:54.924Z,77.23
2023-02-03T08:37:25.103Z,77.58
2023-02-03T08:39:55.735Z,77.45
2023-02-03T08:42:25.713Z,76.86
2023-02-03T08:45:04.871Z,75.67
2023-02-03T08:47:32.833Z,75.22
2023-02-03T08:50:03.702Z,76.01
2023-02-03T08:52:34.191Z,75.74
2023-02-03T08:55:06.095Z,76.13
2023-02-03T08:57:38.222Z,76.32
2023-02-03T09:00:08.670Z,76.17
2023-02-03T09:02:41.693Z,76.33
2023-02-03T09:05:10.451Z,75.50
2023-02-03T09:07:41.042Z,75.54
2023-02-03T09:10:11.660Z,75.75
2023-02-03T09:12:43.595Z,75.25
2023-02-03T09:15:17.199Z,74.92
2023-02-03T09:17:49.737Z,73.97
2023-02-03T09:20:18.932Z,74.61
2023-02-03T09:22:47.752Z,74.85
2023-02-03T09:25:16.349Z,75.46
2023-02-03T09:27:54.771Z,75.37
2023-02-03T09:30:28.090Z,74.75
2023-02-03T09:32:57.712Z,74.33
2023-02-03T09:35:26.949Z,74.50
2023-02-03T09:38:04.403Z,74.18
2023-02-03T09:40:35.859Z,73.65
2023-02-03T09:43:23.158Z,73.17
2023-02-03T09:45:54.495Z,73.16
2023-02-03T09:48:26.020Z,72.96
2023-02-03T09:50:54.778Z,72.93
2023-02-03T09:53:33.189Z,72.16
2023-02-03T09:56:11.000Z,72.04
2023-02-03T09:58:42.746Z,72.57
2023-02-03T10:01:18.293Z,72.70
2023-02-03T10:04:26.602Z,73.23
2023-02-03T10:07:28.715Z,73.26
2023-02-03T10:10:20.771Z,72.98
2023-02-03T10:12:58.994Z,73.27
2023-02-03T10:15:33.859Z,72.82
2023-02-03T10:18:11.247Z,73.26
2023-02-03T10:20:47.231Z,73.22
2023-02-03T10:23:38.169Z,73.53
2023-02-03T10:26:09.032Z,73.72
2023-02-03T10:28:41.785Z,73.00
2023-02-03T10:31:18.524Z,73.01
2023-02-03T10:33:47.223Z,72.87
2023-02-03T10:37:11.785Z,73.24
2023-02-03T10:39:44.362Z,73.64
2023-02-03T10:42:15.358Z,73.87
2023-02-03T10:44:57.879Z,73.81
2023-02-03T10:47:39.784Z,72.77
2023-02-03T10:50:22.215Z,72.75
2023-02-03T10:53:26.929Z,73.29
2023-02-03T10:56:10.337Z,73.68
2023-02-03T10:58:39.742Z,74.11
2023-02-03T11:01:16.913Z,74.41
2023-02-03T11:03:57.777Z,73.50
2023-02-03T11:06:28.891Z,72.94
2023-02-03T11:08:58.041Z,72.56
2023-02-03T11:11:31.591Z,72.96
2023-02-03T11:14:03.187Z,73.09
2023-02-03T11:16:34.988Z,73.11
2023-02-03T11:19:23.551Z,73.19
2023-02-03T11:21:57.005Z,72.99
2023-02-03T11:24:54.139Z,72.71
2023-02-03T11:27:24.533Z,71.99
2023-02-03T11:30:08.132Z,71.64
2023-02-03T11:32:37.957Z,71.89
2023-02-03T11:35:29.242Z,72.51
2023-02-03T11:38:01.055Z,72.52
2023-02-03T11:40:30.667Z,72.67
2023-02-03T11:43:03.010Z,72.89
2023-02-03T11:45:43.060Z,72.76
2023-02-03T11:48:35.744Z,71.93
2023-02-03T11:51:34.780Z,71.91
2023-02-03T11:54:32.179Z,73.05
2023-02-03T11:57:52.220Z,73.79
2023-02-03T12:01:11.007Z,74.15
2023-02-03T12:04:15.607Z,74.42
2023-02-03T12:07:19.910Z,73.68
2023-02-03T12:10:32.541Z,73.45
2023-02-03T12:13:23.453Z,73.31
2023-02-03T12:16:05.272Z,73.10
2023-02-03T12:18:41.494Z,73.90
2023-02-03T12:21:24.785Z,74.51
2023-02-03T12:24:06.181Z,74.44
2023-02-03T12:26:58.992Z,74.39
2023-02-03T12:29:55.770Z,73.85
2023-02-03T12:32:40.677Z,73.14
2023-02-03T12:35:18.353Z,73.22
2023-02-03T12:37:57.185Z,74.25
2023-02-03T12:40:49.455Z,74.79
2023-02-03T12:43:52.155Z,74.77
2023-02-03T12:47:13.838Z,74.22
2023-02-03T12:50:22.871Z,73.30
2023-02-03T12:53:17.104Z,72.98
2023-02-03T12:56:12.635Z,73.74
2023-02-03T12:58:52.228Z,74.43
2023-02-03T13:02:05.082Z,75.27
2023-02-03T13:04:42.981Z,74.99
2023-02-03T13:08:04.683Z,74.04
2023-02-03T13:10:43.507Z,74.87
2023-02-03T13:13:17.745Z,77.12
2023-02-03T13:15:50.460Z,79.80
2023-02-03T13:18:38.497Z,81.28
2023-02-03T13:21:18.171Z,80.73
2023-02-03T13:23:48.002Z,81.10
2023-02-03T13:26:42.862Z,82.41
2023-02-03T13:30:01.501Z,83.29
2023-02-03T13:33:05.632Z,84.40
2023-02-03T13:35:55.265Z,82.92
2023-02-03T13:38:36.421Z,82.29
2023-02-03T13:41:19.342Z,82.65
2023-02-03T13:43:51.101Z,84.13
2023-02-03T13:46:27.592Z,85.80
2023-02-03T13:48:58.948Z,84.94
2023-02-03T13:51:37.181Z,85.19
2023-02-03T13:54:33.943Z,85.76
2023-02-03T13:57:30.999Z,85.48
2023-02-03T14:00:03.228Z,86.33
2023-02-03T14:02:52.730Z,86.37
2023-02-03T14:05:49.111Z,84.69
2023-02-03T14:08:32.517Z,84.54
2023-02-03T14:11:39.826Z,84.78
2023-02-03T14:14:12.252Z,85.78
2023-02-03T14:16:54.132Z,85.21
2023-02-03T14:19:32.949Z,84.45
2023-02-03T14:22:10.246Z,84.20
2023-02-03T14:24:46.611Z,84.31
2023-02-03T14:27:30.213Z,85.00
2023-02-03T14:30:14.527Z,85.56
2023-02-03T14:32:55.343Z,85.80
2023-02-03T14:35:35.346Z,84.79
2023-02-03T14:38:13.423Z,84.03
2023-02-03T14:41:03.934Z,84.36
2023-02-03T14:43:55.726Z,84.65
2023-02-03T19:01:04.277Z,77.98
2023-02-03T19:03:44.958Z,77.89
2023-02-03T19:06:24.211Z,77.78
2023-02-03T19:08:54.429Z,77.77
2023-02-03T19:11:30.917Z,77.91
2023-02-03T19:14:00.396Z,77.25
2023-02-03T19:16:39.923Z,76.91
2023-02-03T19:19:17.058Z,76.65
2023-02-03T19:22:00.830Z,77.25
2023-02-03T19:24:32.388Z,77.76
2023-02-03T19:27:05.243Z,78.25
2023-02-03T19:29:39.240Z,78.47
2023-02-03T19:32:17.184Z,78.54
2023-02-03T19:34:48.670Z,77.73
2023-02-03T19:37:33.723Z,77.85
2023-02-03T19:40:06.749Z,77.70
2023-02-03T19:43:04.052Z,77.56
2023-02-03T19:45:39.063Z,77.27
2023-02-03T19:48:36.219Z,77.87
2023-02-03T19:51:07.022Z,78.11
2023-02-03T19:53:41.613Z,78.56
2023-02-03T19:56:15.489Z,78.63
2023-02-03T19:58:51.971Z,78.70
2023-02-03T20:01:26.995Z,78.02
2023-02-03T20:04:00.769Z,77.26
2023-02-03T20:06:39.505Z,77.27
2023-02-03T20:09:15.221Z,77.56
2023-02-03T20:11:57.158Z,77.89
2023-02-03T20:14:36.466Z,78.21
2023-02-03T20:17:33.018Z,78.52
2023-02-03T20:20:04.322Z,78.42
2023-02-03T20:22:39.437Z,77.59
2023-02-03T20:25:13.810Z,76.88
2023-02-03T20:27:47.456Z,77.18
2023-02-03T20:30:29.411Z,77.62
2023-02-03T20:32:58.218Z,77.98
2023-02-03T20:35:33.172Z,78.14
2023-02-03T20:38:03.875Z,78.37
2023-02-03T20:40:42.308Z,78.27
2023-02-03T20:43:25.360Z,77.78
2023-02-03T20:45:58.509Z,77.20
2023-02-03T20:48:32.606Z,76.91
2023-02-03T20:51:06.832Z,77.45
2023-02-03T20:53:38.899Z,77.87
2023-02-03T20:56:19.211Z,78.01
2023-02-03T20:59:44.042Z,78.12
2023-02-03T21:05:46.406Z,77.92
2023-02-03T21:08:15.579Z,77.13
2023-02-03T21:10:45.817Z,76.96
2023-02-03T21:13:30.660Z,77.34
2023-02-03T21:16:02.033Z,77.91
2023-02-03T21:18:37.777Z,78.10
2023-02-03T21:21:16.934Z,78.23
2023-02-03T21:23:53.585Z,78.26
2023-02-03T21:26:33.613Z,77.53
2023-02-03T21:29:03.739Z,76.67
2023-02-03T21:31:36.684Z,76.39
2023-02-03T21:34:27.531Z,76.93
2023-02-03T21:36:59.624Z,77.51
2023-02-03T21:39:32.169Z,77.73
2023-02-03T21:42:42.700Z,77.90
2023-02-03T21:45:28.002Z,78.04
2023-02-03T21:48:02.625Z,78.16
2023-02-03T21:50:40.790Z,77.42
2023-02-03T21:53:38.078Z,76.87
2023-02-03T21:56:24.064Z,76.86
2023-02-03T21:58:58.972Z,77.43
2023-02-03T22:01:34.722Z,77.63
2023-02-03T22:04:06.009Z,77.80
2023-02-03T22:06:53.634Z,78.21
2023-02-03T22:09:26.251Z,78.26
2023-02-03T22:12:17.633Z,77.60
2023-02-03T22:14:47.948Z,76.78
2023-02-03T22:17:22.822Z,76.48
2023-02-03T22:19:52.417Z,76.91
2023-02-03T22:22:20.446Z,77.36
2023-02-03T22:24:54.880Z,77.56
2023-02-03T22:27:25.744Z,77.72
2023-02-03T22:29:56.073Z,77.96
2023-02-03T22:32:29.907Z,78.03
2023-02-03T22:34:59.279Z,77.36
2023-02-03T22:37:32.320Z,76.65
2023-02-03T22:40:10.288Z,76.29
2023-02-03T22:42:38.938Z,76.72
2023-02-03T22:45:09.811Z,77.20
2023-02-03T22:47:40.128Z,77.40
2023-02-03T22:50:10.105Z,77.47
2023-02-03T22:52:38.866Z,77.50
2023-02-03T22:55:09.409Z,77.59
2023-02-03T22:57:38.865Z,77.56
2023-02-03T23:00:10.427Z,76.72
2023-02-03T23:02:39.887Z,76.18
2023-02-03T23:05:09.891Z,76.14
2023-02-03T23:07:42.204Z,76.55
2023-02-03T23:10:15.649Z,77.12
2023-02-03T23:12:48.834Z,77.56
2023-02-03T23:15:19.610Z,77.76
2023-02-03T23:17:49.995Z,77.93
2023-02-03T23:20:18.843Z,78.28
2023-02-03T23:22:49.052Z,77.80
2023-02-03T23:25:17.034Z,77.38
2023-02-03T23:27:45.374Z,77.21
2023-02-03T23:30:15.798Z,76.74
2023-02-03T23:32:45.745Z,77.15
2023-02-03T23:35:35.025Z,77.54
2023-02-03T23:38:08.267Z,77.74
2023-02-03T23:40:38.479Z,78.01
2023-02-03T23:43:06.769Z,78.31
2023-02-03T23:45:35.142Z,78.38
2023-02-03T23:48:04.043Z,77.35
2023-02-03T23:50:35.113Z,76.72
2023-02-03T23:53:05.929Z,76.48
2023-02-03T23:55:35.750Z,76.67
2023-02-03T23:58:05.379Z,76.92
